Green Valley, West Virginia
Current Conditions -  °F | °C
As of 6:52 AM on Monday 22 Dec 2014 (Local Time) from KBLF Reporting Station
Overcast Overcast  
Wind Chill: 32°   Ceiling: 700
Heat Index: 36°   Visibility: 10mi
Dew Point: 31°   Wind: 5mph
Humidity: 82%   Direction: 50°NE
Pressure: 30.07"   Gusts: NA
Location:  37.2994°N, 81.226°W
Report Text: KBLF 221152Z AUTO 05004KT 10SM BKN007 OVC033 02/M01 A3007 RMK AO2 SLP191 T00221006 10033 20022 55006
Loading
Personal Weather Stations






























Interactive Weather Map New forecast layout! Learn more

10-Day Weather Forecast

Advertisements
Track Severe Weather on mobile